createdAt,value
2017-12-08T00:00:54.616Z,22.80
2017-12-08T00:03:29.831Z,25.37
2017-12-08T00:06:04.900Z,18.13
2017-12-08T00:08:39.464Z,14.50
2017-12-08T00:11:14.585Z,18.30
2017-12-08T00:13:49.007Z,21.63
2017-12-08T00:16:24.240Z,20.73
2017-12-08T00:18:59.096Z,20.17
2017-12-08T00:21:33.896Z,17.07
2017-12-08T00:24:08.932Z,15.60
2017-12-08T00:26:43.888Z,14.93
2017-12-08T00:29:18.893Z,12.10
2017-12-08T00:31:53.944Z,15.50
2017-12-08T00:34:28.924Z,23.60
2017-12-08T00:37:03.808Z,13.47
2017-12-08T00:39:38.960Z,22.13
2017-12-08T00:42:13.944Z,17.93
2017-12-08T00:44:49.043Z,13.37
2017-12-08T00:47:24.396Z,24.13
2017-12-08T00:49:59.267Z,18.03
2017-12-08T00:52:34.228Z,18.30
2017-12-08T00:55:09.265Z,15.70
2017-12-08T00:57:44.092Z,26.10
2017-12-08T01:00:18.992Z,16.60
2017-12-08T01:02:53.947Z,12.07
2017-12-08T01:05:29.000Z,13.33
2017-12-08T01:08:04.132Z,13.63
2017-12-08T01:10:39.360Z,13.70
2017-12-08T01:13:14.648Z,14.03
2017-12-08T01:15:49.765Z,11.80
2017-12-08T01:18:24.800Z,12.10
2017-12-08T01:21:00.205Z,15.73
2017-12-08T01:23:35.484Z,15.00
2017-12-08T01:26:10.593Z,16.17
2017-12-08T01:28:45.711Z,18.67
2017-12-08T01:31:20.597Z,17.27
2017-12-08T01:33:55.399Z,9.60
2017-12-08T01:36:30.510Z,13.93
2017-12-08T01:39:04.972Z,10.20
2017-12-08T01:41:40.183Z,12.67
2017-12-08T01:44:15.148Z,14.77
2017-12-08T01:46:50.072Z,12.27
2017-12-08T01:49:25.144Z,9.90
2017-12-08T01:51:59.555Z,13.50
2017-12-08T01:54:34.462Z,11.90
2017-12-08T01:57:09.311Z,10.33
2017-12-08T01:59:44.236Z,9.27
2017-12-08T02:02:19.131Z,11.50
2017-12-08T02:04:54.004Z,10.10
2017-12-08T02:07:29.033Z,13.63
2017-12-08T02:10:04.259Z,11.63
2017-12-08T02:12:39.440Z,12.43
2017-12-08T02:15:14.468Z,14.40
2017-12-08T02:17:49.780Z,13.60
2017-12-08T02:20:24.424Z,12.33
2017-12-08T02:22:59.426Z,16.63
2017-12-08T02:25:34.328Z,10.80
2017-12-08T02:28:09.288Z,11.83
2017-12-08T02:30:43.512Z,15.03
2017-12-08T02:33:18.304Z,19.87
2017-12-08T02:35:53.127Z,17.90
2017-12-08T02:38:28.145Z,9.13
2017-12-08T02:41:03.049Z,4.43
2017-12-08T02:43:37.809Z,6.97
2017-12-08T02:46:12.613Z,12.13
2017-12-08T02:48:47.684Z,8.83
2017-12-08T02:51:22.331Z,6.90
2017-12-08T02:53:57.268Z,10.87
2017-12-08T02:56:32.065Z,10.10
2017-12-08T02:59:07.112Z,5.77
2017-12-08T03:01:42.304Z,8.20
2017-12-08T03:04:17.409Z,6.03
2017-12-08T03:06:52.332Z,8.90
2017-12-08T03:09:27.121Z,9.97
2017-12-08T03:12:02.096Z,5.30
2017-12-08T03:14:37.100Z,8.73
2017-12-08T03:17:11.980Z,10.20
2017-12-08T03:19:46.732Z,14.97
2017-12-08T03:22:22.092Z,7.93
2017-12-08T03:24:56.936Z,11.00
2017-12-08T03:27:31.520Z,10.33
2017-12-08T03:30:06.504Z,15.03
2017-12-08T03:32:41.684Z,9.73
2017-12-08T03:35:16.484Z,5.60
2017-12-08T03:37:50.907Z,8.57
2017-12-08T03:40:25.648Z,5.53
2017-12-08T03:43:00.844Z,9.80
2017-12-08T03:45:35.245Z,7.87
2017-12-08T03:48:10.237Z,9.87
2017-12-08T03:50:45.191Z,14.40
2017-12-08T03:53:19.993Z,9.20
2017-12-08T03:55:54.708Z,11.70
2017-12-08T03:58:29.404Z,12.07
2017-12-08T04:01:04.280Z,9.70
2017-12-08T04:03:38.992Z,19.03
2017-12-08T04:06:13.740Z,16.60
2017-12-08T04:08:48.677Z,9.63
2017-12-08T04:11:23.793Z,8.47
2017-12-08T04:13:58.875Z,6.30
2017-12-08T04:16:33.736Z,13.50
2017-12-08T04:19:08.516Z,13.90
2017-12-08T04:21:43.184Z,3.80
2017-12-08T04:24:18.198Z,5.23
2017-12-08T04:26:52.915Z,10.97
2017-12-08T04:29:27.623Z,6.50
2017-12-08T04:32:02.660Z,18.60
2017-12-08T04:34:37.540Z,19.73
2017-12-08T04:37:11.960Z,8.30
2017-12-08T04:39:46.744Z,12.10
2017-12-08T04:42:21.700Z,3.30
2017-12-08T04:44:56.794Z,3.60
2017-12-08T04:47:31.813Z,9.63
2017-12-08T04:50:06.863Z,10.10
2017-12-08T04:52:42.115Z,17.33
2017-12-08T04:55:16.873Z,10.33
2017-12-08T04:57:52.132Z,16.37
2017-12-08T05:00:27.003Z,8.83
2017-12-08T05:03:01.625Z,13.60
2017-12-08T05:05:36.045Z,7.07
2017-12-08T05:08:11.172Z,7.60
2017-12-08T05:10:45.892Z,8.03
2017-12-08T05:13:21.054Z,6.70
2017-12-08T05:15:56.136Z,4.20
2017-12-08T05:18:30.936Z,2.50
2017-12-08T05:21:05.404Z,4.77
2017-12-08T05:23:40.164Z,7.50
2017-12-08T05:26:15.044Z,2.40
2017-12-08T05:28:49.848Z,3.97
2017-12-08T05:31:24.684Z,3.13
2017-12-08T05:33:59.837Z,3.87
2017-12-08T05:36:34.785Z,4.80
2017-12-08T05:39:09.881Z,1.20
2017-12-08T05:41:44.956Z,2.20
2017-12-08T05:44:19.735Z,5.77
2017-12-08T05:46:54.588Z,5.13
2017-12-08T05:49:29.408Z,2.73
2017-12-08T05:52:04.403Z,1.47
2017-12-08T05:54:39.211Z,2.43
2017-12-08T05:57:14.159Z,1.57
2017-12-08T05:59:49.145Z,2.10
2017-12-08T06:02:23.892Z,2.07
2017-12-08T06:04:59.396Z,3.07
2017-12-08T06:07:34.483Z,2.13
2017-12-08T06:10:09.284Z,1.90
2017-12-08T06:12:44.548Z,5.30
2017-12-08T06:15:19.311Z,1.90
2017-12-08T06:17:54.220Z,3.97
2017-12-08T06:20:28.724Z,2.80
2017-12-08T06:23:03.854Z,2.97
2017-12-08T06:25:38.679Z,6.77
2017-12-08T06:28:13.411Z,6.80
2017-12-08T06:30:48.346Z,3.53
2017-12-08T06:33:23.320Z,4.30
2017-12-08T06:35:58.306Z,1.17
2017-12-08T06:38:33.399Z,7.93
2017-12-08T06:41:08.724Z,3.30
2017-12-08T06:43:43.336Z,6.33
2017-12-08T06:46:18.564Z,6.20
2017-12-08T06:48:53.300Z,11.37
2017-12-08T06:51:28.014Z,11.43
2017-12-08T06:54:02.916Z,5.10
2017-12-08T06:56:37.507Z,2.37
2017-12-08T06:59:12.176Z,5.00
2017-12-08T07:01:47.211Z,5.90
2017-12-08T07:04:21.772Z,8.47
2017-12-08T07:06:56.672Z,9.57
2017-12-08T07:09:31.379Z,6.33
2017-12-08T07:12:06.260Z,8.07
2017-12-08T07:14:40.892Z,6.00
2017-12-08T07:17:15.794Z,5.73
2017-12-08T07:19:50.195Z,3.87
2017-12-08T07:22:24.624Z,6.77
2017-12-08T07:24:59.936Z,8.27
2017-12-08T07:27:34.380Z,7.27
2017-12-08T07:30:09.615Z,5.80
2017-12-08T07:32:44.324Z,2.33
2017-12-08T07:35:19.209Z,4.53
2017-12-08T07:37:53.908Z,3.40
2017-12-08T07:40:28.836Z,6.07
2017-12-08T07:43:03.744Z,5.97
2017-12-08T07:45:38.572Z,4.20
2017-12-08T07:48:13.072Z,7.00
2017-12-08T07:50:47.980Z,5.57
2017-12-08T07:53:23.025Z,2.47
2017-12-08T07:55:57.949Z,2.80
2017-12-08T07:58:32.593Z,6.23
2017-12-08T08:01:07.509Z,11.50
2017-12-08T08:03:42.361Z,3.33
2017-12-08T08:06:17.252Z,8.80
2017-12-08T08:08:51.903Z,6.00
2017-12-08T08:11:26.840Z,2.90
2017-12-08T08:14:01.989Z,9.50
2017-12-08T08:16:36.659Z,5.20
2017-12-08T08:19:11.785Z,4.03
2017-12-08T08:21:46.383Z,6.17
2017-12-08T08:24:21.084Z,9.30
2017-12-08T08:26:56.245Z,17.33
2017-12-08T08:29:31.165Z,5.60
2017-12-08T08:32:06.328Z,10.97
2017-12-08T08:34:41.256Z,5.77
2017-12-08T08:37:16.208Z,2.77
2017-12-08T08:39:51.236Z,1.00
2017-12-08T08:42:26.473Z,4.00
2017-12-08T08:45:01.311Z,15.37
2017-12-08T08:47:35.950Z,11.13
2017-12-08T08:50:10.669Z,3.97
2017-12-08T08:52:45.617Z,4.40
2017-12-08T08:55:20.362Z,3.20
2017-12-08T08:57:55.356Z,6.17
2017-12-08T09:00:29.860Z,4.07
2017-12-08T09:03:04.840Z,6.77
2017-12-08T09:05:39.849Z,5.33
2017-12-08T09:08:14.313Z,1.97
2017-12-08T09:10:49.228Z,5.50
2017-12-08T09:13:24.080Z,4.53
2017-12-08T09:15:58.840Z,7.67
2017-12-08T09:18:33.849Z,5.77
2017-12-08T09:21:08.672Z,8.03
2017-12-08T09:23:43.276Z,7.17
2017-12-08T09:26:18.458Z,2.93
2017-12-08T09:28:55.336Z,6.53
2017-12-08T09:31:30.512Z,5.30
2017-12-08T09:34:05.427Z,8.17
2017-12-08T09:36:40.116Z,3.97
2017-12-08T09:39:15.204Z,3.10
2017-12-08T09:41:50.081Z,7.30
2017-12-08T09:44:25.192Z,9.30
2017-12-08T09:46:59.712Z,6.27
2017-12-08T09:49:34.500Z,5.20
2017-12-08T09:52:09.144Z,6.30
2017-12-08T09:54:44.248Z,4.53
2017-12-08T09:57:19.132Z,11.03
2017-12-08T09:59:54.160Z,3.63
2017-12-08T10:02:29.036Z,3.37
2017-12-08T10:05:03.905Z,5.90
2017-12-08T10:07:38.968Z,10.13
2017-12-08T10:10:14.067Z,3.60
2017-12-08T10:12:48.720Z,3.40
2017-12-08T10:15:23.839Z,4.03
2017-12-08T10:17:58.770Z,4.90
2017-12-08T10:20:33.424Z,6.23
2017-12-08T10:23:08.065Z,6.50
2017-12-08T10:25:43.181Z,3.03
2017-12-08T10:28:18.088Z,2.47
2017-12-08T10:30:52.454Z,7.10
2017-12-08T10:33:27.568Z,2.77
2017-12-08T10:36:02.044Z,6.30
2017-12-08T10:38:37.056Z,7.70
2017-12-08T10:41:11.889Z,3.50
2017-12-08T10:43:46.407Z,2.57
2017-12-08T10:46:21.743Z,3.50
2017-12-08T10:48:56.438Z,4.93
2017-12-08T10:51:31.121Z,6.93
2017-12-08T10:54:06.356Z,14.73
2017-12-08T10:56:41.791Z,4.60
2017-12-08T10:59:16.465Z,2.77
2017-12-08T11:01:51.268Z,5.63
2017-12-08T11:04:25.817Z,2.50
2017-12-08T11:07:00.791Z,3.60
2017-12-08T11:09:35.520Z,3.03
2017-12-08T11:12:10.228Z,3.83
2017-12-08T11:14:46.566Z,3.03
2017-12-08T11:17:20.918Z,2.07
2017-12-08T11:19:55.721Z,4.53
2017-12-08T11:22:30.265Z,5.80
2017-12-08T11:25:05.205Z,4.17
2017-12-08T11:27:39.825Z,3.80
2017-12-08T11:30:14.318Z,4.47
2017-12-08T11:32:49.442Z,7.20
2017-12-08T11:35:24.465Z,6.10
2017-12-08T11:37:59.489Z,3.33
2017-12-08T11:40:35.008Z,5.43
2017-12-08T11:43:09.576Z,7.10
2017-12-08T11:45:44.493Z,3.07
2017-12-08T11:48:19.432Z,3.13
2017-12-08T11:50:54.289Z,3.00
2017-12-08T11:53:29.189Z,7.17
2017-12-08T11:56:04.341Z,3.17
2017-12-08T11:58:39.124Z,2.50
2017-12-08T12:01:13.517Z,2.33
2017-12-08T12:03:48.525Z,3.67
2017-12-08T12:06:23.673Z,5.03
2017-12-08T12:08:58.684Z,3.20
2017-12-08T12:11:33.818Z,6.13
2017-12-08T12:14:08.693Z,3.73
2017-12-08T12:16:43.516Z,4.07
2017-12-08T12:19:18.400Z,2.43
2017-12-08T12:21:53.181Z,7.70
2017-12-08T12:24:28.196Z,3.43
2017-12-08T12:27:02.936Z,3.60
2017-12-08T12:29:37.740Z,4.37
2017-12-08T12:32:12.500Z,4.17
2017-12-08T12:34:47.481Z,4.80
2017-12-08T12:37:22.376Z,3.80
2017-12-08T12:39:57.463Z,4.37
2017-12-08T12:42:31.995Z,4.90
2017-12-08T12:45:06.904Z,4.60
2017-12-08T12:47:42.284Z,2.40
2017-12-08T12:50:17.176Z,3.70
2017-12-08T12:52:52.088Z,3.63
2017-12-08T12:55:26.988Z,3.73
2017-12-08T12:58:01.702Z,3.33
2017-12-08T13:00:36.531Z,2.63
2017-12-08T13:03:11.361Z,4.30
2017-12-08T13:05:46.357Z,4.33
2017-12-08T13:08:21.440Z,3.40
2017-12-08T13:10:56.437Z,3.30
2017-12-08T13:13:31.141Z,3.20
2017-12-08T13:16:06.220Z,21.30
2017-12-08T13:18:41.093Z,2.30
2017-12-08T13:21:16.336Z,2.00
2017-12-08T13:23:50.844Z,3.33
2017-12-08T13:26:25.692Z,2.57
2017-12-08T13:29:00.597Z,3.10
2017-12-08T13:31:35.474Z,2.60
2017-12-08T13:34:10.180Z,2.40
2017-12-08T13:36:44.941Z,4.67
2017-12-08T13:39:19.735Z,3.10
2017-12-08T13:41:54.603Z,1.93
2017-12-08T13:44:29.009Z,2.50
2017-12-08T13:47:03.855Z,2.60
2017-12-08T13:49:38.788Z,2.53
2017-12-08T13:52:13.590Z,2.20
2017-12-08T13:54:59.728Z,2.87
2017-12-08T13:57:34.160Z,1.70
2017-12-08T14:00:08.944Z,2.23
2017-12-08T14:02:43.841Z,1.60
2017-12-08T14:05:18.252Z,1.30
2017-12-08T14:07:53.381Z,4.33
2017-12-08T14:10:28.260Z,1.73
2017-12-08T14:13:02.913Z,2.10
2017-12-08T14:15:37.737Z,2.30
2017-12-08T14:18:12.716Z,3.20
2017-12-08T14:20:47.928Z,3.40
2017-12-08T14:23:22.956Z,3.73
2017-12-08T14:25:58.136Z,5.00
2017-12-08T14:28:33.196Z,3.50
2017-12-08T14:31:08.119Z,4.93
2017-12-08T14:33:43.068Z,4.13
2017-12-08T14:36:17.665Z,3.70
2017-12-08T14:38:52.827Z,3.90
2017-12-08T14:41:27.777Z,3.47
2017-12-08T14:44:02.793Z,6.23
2017-12-08T14:46:38.017Z,6.73
2017-12-08T14:49:13.095Z,6.67
2017-12-08T14:51:48.104Z,3.97
2017-12-08T14:54:22.947Z,5.17
2017-12-08T14:56:57.985Z,8.40
2017-12-08T14:59:32.912Z,6.47
2017-12-08T15:02:07.719Z,3.50
2017-12-08T15:04:42.476Z,3.77
2017-12-08T15:07:17.805Z,8.80
2017-12-08T15:09:52.623Z,6.37
2017-12-08T15:12:27.370Z,17.50
2017-12-08T15:15:02.376Z,5.67
2017-12-08T15:17:37.743Z,13.40
2017-12-08T15:20:12.380Z,19.23
2017-12-08T15:22:47.508Z,12.03
2017-12-08T15:25:22.404Z,7.70
2017-12-08T15:27:57.197Z,18.53
2017-12-08T15:30:32.398Z,10.87
2017-12-08T15:33:07.330Z,16.63
2017-12-08T15:35:42.024Z,29.40
2017-12-08T15:38:16.562Z,13.80
2017-12-08T15:40:51.564Z,24.07
2017-12-08T15:43:26.564Z,6.30
2017-12-08T15:46:01.994Z,8.53
2017-12-08T15:48:36.111Z,3.97
2017-12-08T15:51:10.798Z,6.80
2017-12-08T15:53:45.212Z,2.53
2017-12-08T15:56:19.927Z,3.13
2017-12-08T15:58:54.588Z,2.27
2017-12-08T16:01:29.172Z,3.43
2017-12-08T16:04:04.284Z,1.70
2017-12-08T16:06:39.038Z,2.07
2017-12-08T16:09:13.425Z,1.13
2017-12-08T16:11:48.464Z,2.73
2017-12-08T16:14:23.270Z,1.80
2017-12-08T16:16:58.045Z,3.70
2017-12-08T16:19:32.548Z,1.70
2017-12-08T16:22:07.866Z,2.80
2017-12-08T16:24:42.557Z,3.70
2017-12-08T16:27:17.228Z,2.90
2017-12-08T16:29:51.644Z,2.60
2017-12-08T16:32:27.028Z,2.87
2017-12-08T16:35:01.865Z,2.33
2017-12-08T16:37:36.694Z,5.30
2017-12-08T16:40:13.120Z,2.80
2017-12-08T16:42:47.740Z,1.60
2017-12-08T16:45:22.464Z,4.70
2017-12-08T16:47:57.768Z,1.93
2017-12-08T16:50:32.649Z,4.30
2017-12-08T16:53:07.240Z,3.63
2017-12-08T16:55:42.337Z,6.17
2017-12-08T16:58:17.366Z,1.80
2017-12-08T17:00:52.159Z,5.07
2017-12-08T17:03:26.788Z,4.60
2017-12-08T17:06:01.609Z,7.17
2017-12-08T17:08:36.764Z,3.30
2017-12-08T17:11:12.577Z,7.57
2017-12-08T17:13:47.716Z,3.00
2017-12-08T17:16:22.209Z,2.70
2017-12-08T17:18:57.172Z,3.00
2017-12-08T17:21:31.982Z,2.67
2017-12-08T17:24:06.396Z,3.93
2017-12-08T17:26:40.613Z,3.43
2017-12-08T17:29:15.242Z,3.23
2017-12-08T17:31:49.624Z,2.27
2017-12-08T17:34:23.956Z,7.37
2017-12-08T17:36:59.148Z,2.50
2017-12-08T17:39:34.005Z,2.40
2017-12-08T17:42:09.024Z,2.80
2017-12-08T17:44:43.896Z,3.20
2017-12-08T17:47:18.787Z,1.43
2017-12-08T17:49:53.809Z,2.30
2017-12-08T17:52:28.668Z,2.70
2017-12-08T17:55:03.673Z,2.07
2017-12-08T17:57:38.524Z,2.80
2017-12-08T18:00:13.303Z,3.63
2017-12-08T18:02:48.509Z,4.00
2017-12-08T18:05:23.076Z,3.00
2017-12-08T18:07:58.193Z,2.80
2017-12-08T18:10:33.250Z,2.20
2017-12-08T18:13:07.996Z,3.13
2017-12-08T18:15:42.780Z,2.33
2017-12-08T18:18:17.149Z,1.70
2017-12-08T18:20:52.188Z,2.13
2017-12-08T18:23:26.846Z,3.03
2017-12-08T18:26:01.948Z,2.40
2017-12-08T18:28:36.447Z,2.53
2017-12-08T18:31:11.385Z,2.70
2017-12-08T18:33:46.177Z,3.13
2017-12-08T18:36:30.477Z,5.73
2017-12-08T18:39:04.625Z,1.73
2017-12-08T18:41:39.953Z,2.93
2017-12-08T18:44:14.579Z,6.50
2017-12-08T18:46:49.476Z,4.33
2017-12-08T18:49:24.340Z,3.40
2017-12-08T18:51:59.064Z,5.97
2017-12-08T18:54:33.836Z,5.70
2017-12-08T18:57:08.416Z,3.33
2017-12-08T18:59:43.369Z,6.53
2017-12-08T19:02:18.212Z,5.37
2017-12-08T19:04:52.910Z,7.47
2017-12-08T19:07:27.934Z,7.40
2017-12-08T19:10:03.319Z,11.20
2017-12-08T19:12:38.023Z,8.97
2017-12-08T19:15:12.833Z,9.70
2017-12-08T19:17:48.293Z,8.97
2017-12-08T19:20:23.156Z,10.97
2017-12-08T19:22:58.172Z,9.00
2017-12-08T19:25:32.672Z,11.93
2017-12-08T19:28:07.451Z,13.70
2017-12-08T19:30:42.472Z,11.57
2017-12-08T19:33:16.766Z,12.40
2017-12-08T19:35:51.341Z,11.17
2017-12-08T19:38:25.997Z,7.53
2017-12-08T19:41:01.157Z,14.10
2017-12-08T19:43:35.700Z,10.80
2017-12-08T19:46:10.658Z,13.07
2017-12-08T19:48:45.032Z,6.50
2017-12-08T19:51:20.363Z,7.73
2017-12-08T19:53:55.248Z,8.93
2017-12-08T19:56:30.061Z,9.40
2017-12-08T19:59:04.989Z,7.67
2017-12-08T20:01:39.211Z,8.90
2017-12-08T20:04:14.301Z,12.33
2017-12-08T20:06:49.224Z,8.40
2017-12-08T20:09:24.159Z,13.07
2017-12-08T20:11:58.576Z,8.97
2017-12-08T20:14:33.663Z,9.93
2017-12-08T20:17:08.670Z,11.13
2017-12-08T20:19:43.567Z,11.57
2017-12-08T20:22:18.128Z,10.60
2017-12-08T20:24:52.652Z,8.50
2017-12-08T20:27:27.358Z,9.37
2017-12-08T20:30:02.035Z,10.60
2017-12-08T20:32:37.160Z,7.40
2017-12-08T20:35:12.092Z,14.30
2017-12-08T20:37:47.021Z,12.50
2017-12-08T20:40:21.964Z,15.10
2017-12-08T20:42:56.700Z,9.87
2017-12-08T20:45:31.232Z,7.13
2017-12-08T20:48:06.048Z,11.73
2017-12-08T20:50:40.895Z,5.60
2017-12-08T20:53:15.792Z,11.23
2017-12-08T20:55:50.930Z,6.63
2017-12-08T20:58:25.709Z,9.30
2017-12-08T21:01:00.532Z,7.70
2017-12-08T21:03:35.465Z,7.03
2017-12-08T21:06:10.297Z,7.80
2017-12-08T21:08:45.315Z,10.97
2017-12-08T21:11:20.065Z,15.03
2017-12-08T21:13:54.985Z,15.50
2017-12-08T21:16:29.917Z,11.57
2017-12-08T21:19:04.613Z,6.30
2017-12-08T21:21:39.548Z,9.83
2017-12-08T21:24:13.977Z,11.70
2017-12-08T21:26:48.509Z,12.30
2017-12-08T21:29:23.764Z,9.60
2017-12-08T21:31:58.801Z,5.33
2017-12-08T21:34:33.549Z,10.07
2017-12-08T21:37:08.425Z,6.90
2017-12-08T21:39:43.373Z,8.50
2017-12-08T21:42:18.520Z,8.50
2017-12-08T21:44:53.600Z,5.90
2017-12-08T21:47:28.501Z,9.70
2017-12-08T21:50:03.284Z,6.50
2017-12-08T21:52:38.032Z,6.00
2017-12-08T21:55:12.884Z,7.00
2017-12-08T21:57:47.704Z,8.43
2017-12-08T22:00:22.269Z,11.70
2017-12-08T22:02:56.571Z,5.57
2017-12-08T22:05:31.176Z,5.77
2017-12-08T22:08:06.312Z,6.27
2017-12-08T22:10:41.129Z,5.43
2017-12-08T22:13:16.056Z,6.77
2017-12-08T22:15:50.858Z,7.70
2017-12-08T22:18:25.601Z,6.47
2017-12-08T22:21:00.684Z,4.27
2017-12-08T22:23:35.488Z,6.60
2017-12-08T22:26:10.321Z,7.97
2017-12-08T22:28:45.464Z,5.07
2017-12-08T22:31:20.529Z,4.90
2017-12-08T22:33:55.323Z,4.90
2017-12-08T22:36:30.101Z,5.43
2017-12-08T22:39:04.620Z,3.40
2017-12-08T22:41:39.704Z,5.03
2017-12-08T22:44:14.632Z,5.10
2017-12-08T22:46:49.992Z,4.07
2017-12-08T22:49:24.945Z,4.33
2017-12-08T22:51:59.604Z,10.70
2017-12-08T22:54:34.499Z,5.00
2017-12-08T22:57:09.031Z,3.93
2017-12-08T22:59:44.147Z,3.50
2017-12-08T23:02:18.903Z,3.80
2017-12-08T23:04:53.917Z,1.63
2017-12-08T23:07:28.896Z,2.80
2017-12-08T23:10:03.799Z,5.37
2017-12-08T23:12:38.274Z,4.90
2017-12-08T23:15:13.049Z,4.60
2017-12-08T23:17:47.792Z,3.33
2017-12-08T23:20:22.701Z,2.50
2017-12-08T23:22:57.749Z,4.17
2017-12-08T23:25:32.356Z,5.53
2017-12-08T23:28:07.504Z,5.60
2017-12-08T23:30:42.317Z,5.70
2017-12-08T23:33:17.167Z,2.53
2017-12-08T23:35:52.089Z,2.00
2017-12-08T23:38:26.944Z,2.07
2017-12-08T23:41:01.732Z,2.10
2017-12-08T23:43:37.142Z,2.73
2017-12-08T23:46:11.851Z,4.07
2017-12-08T23:48:46.572Z,5.20
2017-12-08T23:51:21.520Z,9.20
2017-12-08T23:53:57.000Z,2.97
2017-12-08T23:56:31.876Z,6.73
2017-12-08T23:59:07.036Z,6.83
